createdAt,value
2017-09-09T00:01:19.869Z,16.22
2017-09-09T00:03:47.527Z,16.20
2017-09-09T00:06:15.130Z,16.22
2017-09-09T00:08:42.746Z,16.22
2017-09-09T00:11:10.371Z,16.22
2017-09-09T00:13:38.039Z,16.18
2017-09-09T00:16:05.666Z,16.17
2017-09-09T00:18:33.283Z,16.19
2017-09-09T00:21:00.916Z,16.18
2017-09-09T00:23:28.534Z,16.18
2017-09-09T00:25:56.179Z,16.16
2017-09-09T00:28:23.775Z,16.18
2017-09-09T00:30:51.442Z,16.13
2017-09-09T00:33:19.054Z,16.14
2017-09-09T00:35:46.679Z,16.13
2017-09-09T00:38:14.295Z,16.11
2017-09-09T00:40:41.929Z,16.13
2017-09-09T00:43:09.543Z,16.13
2017-09-09T00:45:37.271Z,16.12
2017-09-09T00:48:04.871Z,16.12
2017-09-09T00:50:32.507Z,16.08
2017-09-09T00:53:00.102Z,16.11
2017-09-09T00:55:27.738Z,16.12
2017-09-09T00:57:55.315Z,16.10
2017-09-09T01:00:22.934Z,16.10
2017-09-09T01:02:50.530Z,16.11
2017-09-09T01:05:18.223Z,16.09
2017-09-09T01:07:45.826Z,16.08
2017-09-09T01:10:13.438Z,16.08
2017-09-09T01:12:41.088Z,16.07
2017-09-09T01:15:08.729Z,16.06
2017-09-09T01:17:36.322Z,16.08
2017-09-09T01:20:03.898Z,16.05
2017-09-09T01:22:31.560Z,16.03
2017-09-09T01:24:59.139Z,16.03
2017-09-09T01:27:26.758Z,16.03
2017-09-09T01:29:54.381Z,16.00
2017-09-09T01:32:22.035Z,16.02
2017-09-09T01:34:49.734Z,16.05
2017-09-09T01:37:17.342Z,16.06
2017-09-09T01:39:44.987Z,16.03
2017-09-09T01:42:12.588Z,15.98
2017-09-09T01:44:40.207Z,16.00
2017-09-09T01:47:07.857Z,16.03
2017-09-09T01:49:35.432Z,16.03
2017-09-09T01:52:03.053Z,16.02
2017-09-09T01:54:30.651Z,16.02
2017-09-09T01:56:58.285Z,15.99
2017-09-09T01:59:25.894Z,15.95
2017-09-09T02:01:53.642Z,15.87
2017-09-09T02:04:21.239Z,15.84
2017-09-09T02:06:48.883Z,15.84
2017-09-09T02:09:16.466Z,15.83
2017-09-09T02:11:44.108Z,15.81
2017-09-09T02:14:11.817Z,15.82
2017-09-09T02:16:39.450Z,15.80
2017-09-09T02:19:07.041Z,15.77
2017-09-09T02:21:34.692Z,15.71
2017-09-09T02:24:02.472Z,15.72
2017-09-09T02:26:30.078Z,15.72
2017-09-09T02:28:57.690Z,15.71
2017-09-09T02:31:25.494Z,15.71
2017-09-09T02:33:53.074Z,15.75
2017-09-09T02:36:20.717Z,15.72
2017-09-09T02:38:48.386Z,15.66
2017-09-09T02:41:16.055Z,15.66
2017-09-09T02:43:43.668Z,15.69
2017-09-09T02:46:11.270Z,15.66
2017-09-09T02:48:38.914Z,15.63
2017-09-09T02:51:06.514Z,15.63
2017-09-09T02:53:34.169Z,15.62
2017-09-09T02:56:01.939Z,15.61
2017-09-09T02:58:29.566Z,15.60
2017-09-09T03:00:57.162Z,15.59
2017-09-09T03:03:24.995Z,15.61
2017-09-09T03:05:52.615Z,15.63
2017-09-09T03:08:20.311Z,15.68
2017-09-09T03:10:47.869Z,15.73
2017-09-09T03:13:15.498Z,15.67
2017-09-09T03:15:43.086Z,15.69
2017-09-09T03:18:10.720Z,15.71
2017-09-09T03:20:38.370Z,15.73
2017-09-09T03:23:06.047Z,15.72
2017-09-09T03:25:33.631Z,15.69
2017-09-09T03:28:01.261Z,15.61
2017-09-09T03:30:28.853Z,15.53
2017-09-09T03:32:56.604Z,15.50
2017-09-09T03:35:24.262Z,15.48
2017-09-09T03:37:51.864Z,15.45
2017-09-09T03:40:19.478Z,15.42
2017-09-09T03:42:47.078Z,15.38
2017-09-09T03:45:14.722Z,15.31
2017-09-09T03:47:42.427Z,15.31
2017-09-09T03:50:10.182Z,15.33
2017-09-09T03:52:37.786Z,15.30
2017-09-09T03:55:05.471Z,15.30
2017-09-09T03:57:33.046Z,15.35
2017-09-09T04:00:00.674Z,15.29
2017-09-09T04:02:28.336Z,15.25
2017-09-09T04:04:55.975Z,15.16
2017-09-09T04:07:23.555Z,15.11
2017-09-09T04:09:51.179Z,15.12
2017-09-09T04:12:18.778Z,15.05
2017-09-09T04:14:46.407Z,15.02
2017-09-09T04:17:14.123Z,14.97
2017-09-09T04:19:41.739Z,14.90
2017-09-09T04:22:09.383Z,14.86
2017-09-09T04:24:37.027Z,14.78
2017-09-09T04:27:04.610Z,14.78
2017-09-09T04:29:32.236Z,14.81
2017-09-09T04:31:59.851Z,14.76
2017-09-09T04:34:27.474Z,14.73
2017-09-09T04:36:55.066Z,14.73
2017-09-09T04:39:22.698Z,14.76
2017-09-09T04:41:50.330Z,14.75
2017-09-09T04:44:17.973Z,14.79
2017-09-09T04:46:45.575Z,14.79
2017-09-09T04:49:13.161Z,14.78
2017-09-09T04:51:40.860Z,14.80
2017-09-09T04:54:08.460Z,14.78
2017-09-09T04:56:36.083Z,14.76
2017-09-09T04:59:03.724Z,14.72
2017-09-09T05:01:31.429Z,14.72
2017-09-09T05:03:59.015Z,14.74
2017-09-09T05:06:26.626Z,14.74
2017-09-09T05:08:54.207Z,14.78
2017-09-09T05:11:21.830Z,14.81
2017-09-09T05:13:49.415Z,14.81
2017-09-09T05:16:17.051Z,14.80
2017-09-09T05:18:44.635Z,14.74
2017-09-09T05:21:12.270Z,14.74
2017-09-09T05:23:39.922Z,14.75
2017-09-09T05:26:07.550Z,14.78
2017-09-09T05:28:35.258Z,14.76
2017-09-09T05:31:02.886Z,14.75
2017-09-09T05:33:30.551Z,14.79
2017-09-09T05:35:58.169Z,14.80
2017-09-09T05:38:25.756Z,14.78
2017-09-09T05:40:53.419Z,14.78
2017-09-09T05:43:21.011Z,14.78
2017-09-09T05:45:48.635Z,14.80
2017-09-09T05:48:16.239Z,14.79
2017-09-09T05:50:43.856Z,14.82
2017-09-09T05:53:11.462Z,14.84
2017-09-09T05:55:39.110Z,14.83
2017-09-09T05:58:06.735Z,14.80
2017-09-09T06:00:34.424Z,14.86
2017-09-09T06:03:02.106Z,14.84
2017-09-09T06:05:29.743Z,14.88
2017-09-09T06:07:57.330Z,14.87
2017-09-09T06:10:24.955Z,14.85
2017-09-09T06:12:52.538Z,14.80
2017-09-09T06:15:20.171Z,14.76
2017-09-09T06:17:47.790Z,14.77
2017-09-09T06:20:15.387Z,14.75
2017-09-09T06:22:43.159Z,14.73
2017-09-09T06:25:10.795Z,14.73
2017-09-09T06:27:38.406Z,14.76
2017-09-09T06:30:06.018Z,14.76
2017-09-09T06:32:33.647Z,14.77
2017-09-09T06:35:01.260Z,14.76
2017-09-09T06:37:28.842Z,14.71
2017-09-09T06:39:56.555Z,14.65
2017-09-09T06:42:24.146Z,14.65
2017-09-09T06:44:51.754Z,14.69
2017-09-09T06:47:19.346Z,14.65
2017-09-09T06:49:46.978Z,14.69
2017-09-09T06:52:14.567Z,14.66
2017-09-09T06:54:42.179Z,14.70
2017-09-09T06:57:09.780Z,14.67
2017-09-09T06:59:37.403Z,14.71
2017-09-09T07:02:05.010Z,14.70
2017-09-09T07:04:32.655Z,14.67
2017-09-09T07:07:00.246Z,14.72
2017-09-09T07:09:27.870Z,14.69
2017-09-09T07:11:55.459Z,14.71
2017-09-09T07:14:23.090Z,14.71
2017-09-09T07:16:50.691Z,14.71
2017-09-09T07:19:18.306Z,14.73
2017-09-09T07:21:45.905Z,14.72
2017-09-09T07:24:13.566Z,14.73
2017-09-09T07:26:41.191Z,14.73
2017-09-09T07:29:08.936Z,14.71
2017-09-09T07:31:36.678Z,14.76
2017-09-09T07:34:04.361Z,14.81
2017-09-09T07:36:32.057Z,14.88
2017-09-09T07:38:59.679Z,14.87
2017-09-09T07:41:27.331Z,14.89
2017-09-09T07:43:54.922Z,14.91
2017-09-09T07:46:22.533Z,14.95
2017-09-09T07:48:50.267Z,15.00
2017-09-09T07:51:17.929Z,15.04
2017-09-09T07:53:45.558Z,15.06
2017-09-09T07:56:13.234Z,15.12
2017-09-09T07:58:40.839Z,15.24
2017-09-09T08:01:08.567Z,15.35
2017-09-09T08:03:36.191Z,15.44
2017-09-09T08:06:03.827Z,15.51
2017-09-09T08:08:31.462Z,15.55
2017-09-09T08:10:59.067Z,15.58
2017-09-09T08:13:29.087Z,15.63
2017-09-09T08:15:56.763Z,15.70
2017-09-09T08:18:24.470Z,15.78
2017-09-09T08:20:52.148Z,15.86
2017-09-09T08:23:19.844Z,15.88
2017-09-09T08:25:47.463Z,15.91
2017-09-09T08:28:16.428Z,15.96
2017-09-09T08:30:45.566Z,15.98
2017-09-09T08:33:13.227Z,16.04
2017-09-09T08:35:40.831Z,16.10
2017-09-09T08:38:08.448Z,16.15
2017-09-09T08:40:36.054Z,16.27
2017-09-09T08:43:03.764Z,16.29
2017-09-09T08:45:31.370Z,16.36
2017-09-09T08:47:59.015Z,16.41
2017-09-09T08:50:27.389Z,16.42
2017-09-09T08:52:55.063Z,16.43
2017-09-09T08:55:22.735Z,16.54
2017-09-09T08:57:51.595Z,16.58
2017-09-09T09:00:19.440Z,16.60
2017-09-09T09:02:47.124Z,16.64
2017-09-09T09:05:15.019Z,16.69
2017-09-09T09:07:42.692Z,16.78
2017-09-09T09:10:10.473Z,16.96
2017-09-09T09:12:38.147Z,17.04
2017-09-09T09:15:05.831Z,17.20
2017-09-09T09:17:33.586Z,17.31
2017-09-09T09:20:01.251Z,17.15
2017-09-09T09:22:29.478Z,17.02
2017-09-09T09:24:57.850Z,16.83
2017-09-09T09:27:25.567Z,16.42
2017-09-09T09:29:53.226Z,16.10
2017-09-09T09:32:20.901Z,16.03
2017-09-09T09:34:50.235Z,16.00
2017-09-09T09:37:17.884Z,16.04
2017-09-09T09:39:45.592Z,16.08
2017-09-09T09:42:13.224Z,16.07
2017-09-09T09:44:40.862Z,16.11
2017-09-09T09:47:08.608Z,16.15
2017-09-09T09:49:36.394Z,16.19
2017-09-09T09:52:05.054Z,16.28
2017-09-09T09:54:32.695Z,16.35
2017-09-09T09:57:00.333Z,16.36
2017-09-09T09:59:27.995Z,16.41
2017-09-09T10:01:55.833Z,16.49
2017-09-09T10:04:23.455Z,16.62
2017-09-09T10:06:51.077Z,16.69
2017-09-09T10:09:18.710Z,16.60
2017-09-09T10:11:46.311Z,16.58
2017-09-09T10:14:13.943Z,16.52
2017-09-09T10:16:41.534Z,16.46
2017-09-09T10:19:09.258Z,16.48
2017-09-09T10:21:36.866Z,16.55
2017-09-09T10:24:07.087Z,16.48
2017-09-09T10:26:34.698Z,16.36
2017-09-09T10:29:02.354Z,16.31
2017-09-09T10:31:29.970Z,16.14
2017-09-09T10:33:57.631Z,16.22
2017-09-09T10:36:25.245Z,16.07
2017-09-09T10:38:52.940Z,16.02
2017-09-09T10:41:20.565Z,16.06
2017-09-09T10:43:48.187Z,16.25
2017-09-09T10:46:15.778Z,16.75
2017-09-09T10:48:43.433Z,17.20
2017-09-09T10:51:11.047Z,17.27
2017-09-09T10:53:38.671Z,17.23
2017-09-09T10:56:06.280Z,17.23
2017-09-09T10:58:33.999Z,17.17
2017-09-09T11:01:02.408Z,17.14
2017-09-09T11:03:30.061Z,16.90
2017-09-09T11:05:57.688Z,16.69
2017-09-09T11:08:25.331Z,16.51
2017-09-09T11:10:52.950Z,16.45
2017-09-09T11:13:20.572Z,16.54
2017-09-09T11:15:48.176Z,16.60
2017-09-09T11:18:15.803Z,16.51
2017-09-09T11:20:43.415Z,16.55
2017-09-09T11:23:11.038Z,16.53
2017-09-09T11:25:38.750Z,16.53
2017-09-09T11:28:06.384Z,16.67
2017-09-09T11:30:33.974Z,16.99
2017-09-09T11:33:01.645Z,17.14
2017-09-09T11:35:29.226Z,17.05
2017-09-09T11:37:56.877Z,16.99
2017-09-09T11:40:25.342Z,17.00
2017-09-09T11:42:52.980Z,17.31
2017-09-09T11:45:20.554Z,17.57
2017-09-09T11:47:48.246Z,17.70
2017-09-09T11:50:15.850Z,17.65
2017-09-09T11:52:43.438Z,17.80
2017-09-09T11:55:11.078Z,17.78
2017-09-09T11:57:38.671Z,17.97
2017-09-09T12:00:06.319Z,18.74
2017-09-09T12:02:33.975Z,19.53
2017-09-09T12:05:01.611Z,19.10
2017-09-09T12:07:29.218Z,18.47
2017-09-09T12:09:56.867Z,17.87
2017-09-09T12:12:24.466Z,17.24
2017-09-09T12:14:52.095Z,16.94
2017-09-09T12:17:19.685Z,16.72
2017-09-09T12:19:47.294Z,16.29
2017-09-09T12:22:14.886Z,16.08
2017-09-09T12:24:42.522Z,15.88
2017-09-09T12:27:10.120Z,15.74
2017-09-09T12:29:37.775Z,15.71
2017-09-09T12:32:05.378Z,15.67
2017-09-09T12:34:33.036Z,15.68
2017-09-09T12:37:00.630Z,15.70
2017-09-09T12:39:28.263Z,15.76
2017-09-09T12:41:55.874Z,15.76
2017-09-09T12:44:23.504Z,15.74
2017-09-09T12:46:51.102Z,15.75
2017-09-09T12:49:18.731Z,15.80
2017-09-09T12:51:46.331Z,15.87
2017-09-09T12:54:13.963Z,15.94
2017-09-09T12:56:41.573Z,15.99
2017-09-09T12:59:09.214Z,16.13
2017-09-09T13:01:36.819Z,16.21
2017-09-09T13:04:04.451Z,16.38
2017-09-09T13:06:33.726Z,16.77
2017-09-09T13:09:01.372Z,17.34
2017-09-09T13:11:28.991Z,18.45
2017-09-09T13:13:56.609Z,19.03
2017-09-09T13:16:24.216Z,19.36
2017-09-09T13:18:51.834Z,19.61
2017-09-09T13:21:19.439Z,19.85
2017-09-09T13:23:47.083Z,19.90
2017-09-09T13:26:14.688Z,19.65
2017-09-09T13:28:42.311Z,19.24
2017-09-09T13:31:09.907Z,18.82
2017-09-09T13:33:37.540Z,18.69
2017-09-09T13:36:05.140Z,18.56
2017-09-09T13:38:32.767Z,18.46
2017-09-09T13:41:00.349Z,18.18
2017-09-09T13:43:27.998Z,17.97
2017-09-09T13:45:55.606Z,17.85
2017-09-09T13:48:23.213Z,17.77
2017-09-09T13:50:50.830Z,17.85
2017-09-09T13:53:18.428Z,17.84
2017-09-09T13:55:46.073Z,17.82
2017-09-09T13:58:13.658Z,17.81
2017-09-09T14:00:41.305Z,17.88
2017-09-09T14:03:08.899Z,18.03
2017-09-09T14:05:36.535Z,18.42
2017-09-09T14:08:04.154Z,18.73
2017-09-09T14:10:31.817Z,19.52
2017-09-09T14:12:59.424Z,20.01
2017-09-09T14:15:27.164Z,20.81
2017-09-09T14:17:54.758Z,20.85
2017-09-09T14:20:22.444Z,20.56
2017-09-09T14:22:50.023Z,20.73
2017-09-09T14:25:17.634Z,20.50
2017-09-09T14:27:45.234Z,20.08
2017-09-09T14:30:12.859Z,19.58
2017-09-09T14:32:40.501Z,18.94
2017-09-09T14:35:08.095Z,18.84
2017-09-09T14:37:35.723Z,18.87
2017-09-09T14:40:03.347Z,18.99
2017-09-09T14:42:30.974Z,19.03
2017-09-09T14:44:58.693Z,19.14
2017-09-09T14:47:26.319Z,19.74
2017-09-09T14:49:53.926Z,20.60
2017-09-09T14:52:21.537Z,20.90
2017-09-09T14:54:49.140Z,20.87
2017-09-09T14:57:16.814Z,20.79
2017-09-09T14:59:44.583Z,20.44
2017-09-09T15:02:12.200Z,20.07
2017-09-09T15:04:41.131Z,20.05
2017-09-09T15:07:08.739Z,20.20
2017-09-09T15:09:36.334Z,20.69
2017-09-09T15:12:03.955Z,20.53
2017-09-09T15:14:31.746Z,20.29
2017-09-09T15:16:59.390Z,19.86
2017-09-09T15:19:27.289Z,19.63
2017-09-09T15:21:54.980Z,19.45
2017-09-09T15:24:22.583Z,19.38
2017-09-09T15:26:50.316Z,19.40
2017-09-09T15:29:17.956Z,19.46
2017-09-09T15:31:45.590Z,19.25
2017-09-09T15:34:13.208Z,19.17
2017-09-09T15:36:40.846Z,19.05
2017-09-09T15:39:09.120Z,19.02
2017-09-09T15:41:36.757Z,18.86
2017-09-09T15:44:04.468Z,18.82
2017-09-09T15:46:32.152Z,18.74
2017-09-09T15:48:59.791Z,18.62
2017-09-09T15:51:27.457Z,18.60
2017-09-09T15:53:55.109Z,18.61
2017-09-09T15:56:22.795Z,18.52
2017-09-09T15:58:50.443Z,18.42
2017-09-09T16:01:18.100Z,18.32
2017-09-09T16:03:45.786Z,18.22
2017-09-09T16:06:13.508Z,18.22
2017-09-09T16:08:41.163Z,18.16
2017-09-09T16:11:08.805Z,18.10
2017-09-09T16:13:36.413Z,18.06
2017-09-09T16:16:04.050Z,18.04
2017-09-09T16:18:32.071Z,18.00
2017-09-09T16:20:59.720Z,17.98
2017-09-09T16:23:27.835Z,18.03
2017-09-09T16:25:55.593Z,18.61
2017-09-09T16:28:23.242Z,18.68
2017-09-09T16:30:51.174Z,18.62
2017-09-09T16:33:18.792Z,18.60
2017-09-09T16:35:46.456Z,18.52
2017-09-09T16:38:14.072Z,18.53
2017-09-09T16:40:41.788Z,18.50
2017-09-09T16:43:09.442Z,18.50
2017-09-09T16:45:37.143Z,18.49
2017-09-09T16:48:04.803Z,18.36
2017-09-09T16:50:32.467Z,18.13
2017-09-09T16:53:00.137Z,17.99
2017-09-09T16:55:27.764Z,17.94
2017-09-09T16:57:55.404Z,17.94
2017-09-09T17:00:23.028Z,17.92
2017-09-09T17:02:50.692Z,17.90
2017-09-09T17:05:18.328Z,17.77
2017-09-09T17:07:46.059Z,17.77
2017-09-09T17:10:13.692Z,17.77
2017-09-09T17:12:41.349Z,17.82
2017-09-09T17:15:09.018Z,17.82
2017-09-09T17:17:36.650Z,17.78
2017-09-09T17:20:04.296Z,17.78
2017-09-09T17:22:31.932Z,17.77
2017-09-09T17:25:02.082Z,17.75
2017-09-09T17:27:30.304Z,17.70
2017-09-09T17:29:57.947Z,17.66
2017-09-09T17:32:25.622Z,17.65
2017-09-09T17:34:53.288Z,17.67
2017-09-09T17:37:20.969Z,17.51
2017-09-09T17:39:48.603Z,17.36
2017-09-09T17:42:16.215Z,17.20
2017-09-09T17:44:43.909Z,17.07
2017-09-09T17:47:11.552Z,17.10
2017-09-09T17:49:39.214Z,17.13
2017-09-09T17:52:07.576Z,17.17
2017-09-09T17:54:35.244Z,17.19
2017-09-09T17:57:02.849Z,17.22
2017-09-09T17:59:30.497Z,17.25
2017-09-09T18:01:59.020Z,17.28
2017-09-09T18:04:26.731Z,17.20
2017-09-09T18:06:54.351Z,17.08
2017-09-09T18:09:22.376Z,16.97
2017-09-09T18:11:50.005Z,16.90
2017-09-09T18:14:17.658Z,16.94
2017-09-09T18:16:45.387Z,16.96
2017-09-09T18:19:13.058Z,17.01
2017-09-09T18:21:40.692Z,17.01
2017-09-09T18:24:08.326Z,16.94
2017-09-09T18:26:35.969Z,16.92
2017-09-09T18:29:03.596Z,16.93
2017-09-09T18:31:31.264Z,16.88
2017-09-09T18:33:58.905Z,16.84
2017-09-09T18:36:26.537Z,16.84
2017-09-09T18:38:54.147Z,16.79
2017-09-09T18:41:21.883Z,16.76
2017-09-09T18:43:49.511Z,16.75
2017-09-09T18:46:17.297Z,16.78
2017-09-09T18:48:44.919Z,16.75
2017-09-09T18:51:12.578Z,16.64
2017-09-09T18:53:40.212Z,16.60
2017-09-09T18:56:07.868Z,16.63
2017-09-09T18:58:35.558Z,16.57
2017-09-09T19:01:03.192Z,16.58
2017-09-09T19:03:30.781Z,16.62
2017-09-09T19:05:58.448Z,16.59
2017-09-09T19:08:26.080Z,16.56
2017-09-09T19:10:53.716Z,16.51
2017-09-09T19:13:21.325Z,16.52
2017-09-09T19:15:48.993Z,16.53
2017-09-09T19:18:16.616Z,16.55
2017-09-09T19:20:44.292Z,16.47
2017-09-09T19:23:12.452Z,16.19
2017-09-09T19:25:40.155Z,16.07
2017-09-09T19:28:07.843Z,16.08
2017-09-09T19:30:35.500Z,16.14
2017-09-09T19:33:03.144Z,16.22
2017-09-09T19:35:30.781Z,16.26
2017-09-09T19:37:58.409Z,16.30
2017-09-09T19:40:26.076Z,16.32
2017-09-09T19:42:53.726Z,16.31
2017-09-09T19:45:21.382Z,16.31
2017-09-09T19:47:48.994Z,16.32
2017-09-09T19:50:16.665Z,16.32
2017-09-09T19:52:44.379Z,16.31
2017-09-09T19:55:12.044Z,16.27
2017-09-09T19:57:39.644Z,16.18
2017-09-09T20:00:07.306Z,16.09
2017-09-09T20:02:34.994Z,16.06
2017-09-09T20:05:02.611Z,16.05
2017-09-09T20:07:30.272Z,16.02
2017-09-09T20:09:57.880Z,16.11
2017-09-09T20:12:25.516Z,16.33
2017-09-09T20:14:53.118Z,16.57
2017-09-09T20:17:20.755Z,16.73
2017-09-09T20:19:48.363Z,16.89
2017-09-09T20:22:15.974Z,17.01
2017-09-09T20:24:43.558Z,17.10
2017-09-09T20:27:11.206Z,17.08
2017-09-09T20:29:38.826Z,16.95
2017-09-09T20:32:06.454Z,16.81
2017-09-09T20:34:34.069Z,16.64
2017-09-09T20:37:01.751Z,16.53
2017-09-09T20:39:29.369Z,16.40
2017-09-09T20:41:57.026Z,16.32
2017-09-09T20:44:24.624Z,16.28
2017-09-09T20:46:52.248Z,16.28
2017-09-09T20:49:19.845Z,16.29
2017-09-09T20:51:47.487Z,16.34
2017-09-09T20:54:15.083Z,16.33
2017-09-09T20:56:42.767Z,16.36
2017-09-09T20:59:10.354Z,16.24
2017-09-09T21:01:37.943Z,16.19
2017-09-09T21:04:05.580Z,16.20
2017-09-09T21:06:33.210Z,16.19
2017-09-09T21:09:00.910Z,16.17
2017-09-09T21:11:28.506Z,16.19
2017-09-09T21:13:56.136Z,16.14
2017-09-09T21:16:23.758Z,16.13
2017-09-09T21:18:51.414Z,16.10
2017-09-09T21:21:19.129Z,16.07
2017-09-09T21:23:46.786Z,16.08
2017-09-09T21:26:14.410Z,16.06
2017-09-09T21:28:42.050Z,16.06
2017-09-09T21:31:09.666Z,16.02
2017-09-09T21:33:37.296Z,16.04
2017-09-09T21:36:04.896Z,16.04
2017-09-09T21:38:32.543Z,16.01
2017-09-09T21:41:00.159Z,16.00
2017-09-09T21:43:27.798Z,15.95
2017-09-09T21:45:55.416Z,15.88
2017-09-09T21:48:23.075Z,15.84
2017-09-09T21:50:50.696Z,15.81
2017-09-09T21:53:18.296Z,15.71
2017-09-09T21:55:45.988Z,15.61
2017-09-09T21:58:13.610Z,15.51
2017-09-09T22:00:41.231Z,15.45
2017-09-09T22:03:08.835Z,15.50
2017-09-09T22:05:36.459Z,15.58
2017-09-09T22:08:04.079Z,15.64
2017-09-09T22:10:31.728Z,15.60
2017-09-09T22:12:59.354Z,15.51
2017-09-09T22:15:26.983Z,15.48
2017-09-09T22:17:54.604Z,15.42
2017-09-09T22:20:22.248Z,15.40
2017-09-09T22:22:50.053Z,15.39
2017-09-09T22:25:17.723Z,15.31
2017-09-09T22:27:45.397Z,15.11
2017-09-09T22:30:13.104Z,14.89
2017-09-09T22:32:40.728Z,14.83
2017-09-09T22:35:08.355Z,14.74
2017-09-09T22:37:35.954Z,14.67
2017-09-09T22:40:03.579Z,14.58
2017-09-09T22:42:31.180Z,14.54
2017-09-09T22:44:58.810Z,14.58
2017-09-09T22:47:26.396Z,14.68
2017-09-09T22:49:54.055Z,14.77
2017-09-09T22:52:21.664Z,14.81
2017-09-09T22:54:49.295Z,14.87
2017-09-09T22:57:16.892Z,14.92
2017-09-09T22:59:44.537Z,14.95
2017-09-09T23:02:12.145Z,14.97
2017-09-09T23:04:39.759Z,15.01
2017-09-09T23:07:07.367Z,15.06
2017-09-09T23:09:34.982Z,15.07
2017-09-09T23:12:02.610Z,15.01
2017-09-09T23:14:30.248Z,14.96
2017-09-09T23:16:57.846Z,14.77
2017-09-09T23:19:25.502Z,14.63
2017-09-09T23:21:53.119Z,14.54
2017-09-09T23:24:20.720Z,14.49
2017-09-09T23:26:48.352Z,14.50
2017-09-09T23:29:15.990Z,14.51
2017-09-09T23:31:43.586Z,14.58
2017-09-09T23:34:11.275Z,14.63
2017-09-09T23:36:38.896Z,14.69
2017-09-09T23:39:06.510Z,14.75
2017-09-09T23:41:34.131Z,14.76
2017-09-09T23:44:01.782Z,14.78
2017-09-09T23:46:29.418Z,14.77
2017-09-09T23:48:57.035Z,14.73
2017-09-09T23:51:24.635Z,14.65
2017-09-09T23:53:52.263Z,14.64
2017-09-09T23:56:19.866Z,14.57
2017-09-09T23:58:47.499Z,14.47
